YTS weather

Timmins/Victor M. Power
Timmins, Ontario, Canada

Public forecast

Using degrees Celsius for public forecast. Weather courtesy of forecast.io.

METAR (pilot weather report)

Retrieved 2019/05/20 02:00 UTC (11 minutes ago):

CYTS 200200Z 05011G20KT 5SM -RA FEW020 BKN027 OVC050 05/04 A2979 RMK SC2SC4SC2 PRESRR SLP100

TAF (pilot weather forecast)

Retrieved 2019/05/19 20:42 UTC (5 hours ago):

TAF CYTS 191939Z 1920/2008 08012G22KT P6SM OVC050 TEMPO 1920/1922 P6SM -SHRA FM192200 07010G20KT 6SM -RA BR FEW015 OVC040 TEMPO 1922/2001 3SM -RA BR OVC015 FM200100 04010G20KT 2SM -RA BR OVC005 TEMPO 2001/2008 6SM -RA BR OVC010 RMK NXT FCST BY 200200Z